WetterOnline ( https://www.wetteronline.de )

Wetter aktuell Busdorf

Aktuelles Wetter: Schleswig (48m)

6-stündlich | Neueste Meldungen
Ortszeit Temperatur Wetter
Di, 12.11. 19:00 5.8° C Sprühregen
Di, 12.11. 13:00 6.5° C bedeckt
Di, 12.11. 7:00 5.4° C bedeckt
Di, 12.11. 1:00 3.7° C bewölkt
Mo, 11.11. 19:00 3.3° C bedeckt
Mo, 11.11. 13:00 5.7° C leicht bewölkt
Mo, 11.11. 7:00 2.3° C bedeckt
Mo, 11.11. 1:00 3.4° C wolkenlos
Ortszeit Temperatur Wetter
Mi, 13.11. 0:00 2.8° C wolkenlos
Di, 12.11. 23:50 2.8° C wolkenlos
Di, 12.11. 23:40 3.1° C wolkenlos
Di, 12.11. 23:30 3.3° C wolkenlos
Di, 12.11. 23:20 3.3° C wolkenlos
Di, 12.11. 23:10 3.4° C leicht bewölkt
Di, 12.11. 23:00 3.3° C bewölkt
Di, 12.11. 22:30 3.5° C leicht bewölkt
Di, 12.11. 22:00 3.5° C leicht bewölkt
Di, 12.11. 21:30 3.8° C fast wolkenlos
Di, 12.11. 21:00 4.4° C wolkig
Ortszeit Relative Feuchte Sichtweite
Di, 12.11. 19:00 80% 25 km
Di, 12.11. 13:00 78% 35 km
Di, 12.11. 7:00 82% 26 km
Di, 12.11. 1:00 85% 18 km
Mo, 11.11. 19:00 89% 14 km
Mo, 11.11. 13:00 76% 50 km
Mo, 11.11. 7:00 94% 4.7 km
Mo, 11.11. 1:00 95% 5.0 km
Ortszeit Relative Feuchte Sichtweite
Mi, 13.11. 0:00 94% 15 km
Di, 12.11. 23:50 94% -
Di, 12.11. 23:40 93% -
Di, 12.11. 23:30 92% 20 km
Di, 12.11. 23:20 92% -
Di, 12.11. 23:10 91% -
Di, 12.11. 23:00 89% 29 km
Di, 12.11. 22:30 88% 29 km
Di, 12.11. 22:00 90% 24 km
Di, 12.11. 21:30 91% 26 km
Di, 12.11. 21:00 90% 35 km
Ortszeit Niederschlagsmenge Niederschlagsart
Di, 12.11. 19:00 0.9 l/m2 in 12 Std. Regen
Di, 12.11. 13:00 0.9 l/m2 in 6 Std. Regen
Di, 12.11. 7:00 0.1 l/m2 in 12 Std. -
Di, 12.11. 1:00 0.1 l/m2 in 6 Std. Regen
Mo, 11.11. 19:00 0.0 l/m2 in 12 Std. -
Mo, 11.11. 13:00 0.0 l/m2 in 6 Std. -
Mo, 11.11. 7:00 0.1 l/m2 in 12 Std. -
Mo, 11.11. 1:00 0.1 l/m2 in 6 Std. Regen
Ortszeit Niederschlagsmenge Niederschlagsart
Mi, 13.11. 0:00 0.0 l/m2 in 1 Std. -
Di, 12.11. 23:50 keine Meldung -
Di, 12.11. 23:40 keine Meldung -
Di, 12.11. 23:30 0.0 l/m2 in 1 Std. -
Di, 12.11. 23:20 keine Meldung -
Di, 12.11. 23:10 keine Meldung -
Di, 12.11. 23:00 0.0 l/m2 in 1 Std. -
Di, 12.11. 22:30 0.0 l/m2 in 1 Std. -
Di, 12.11. 22:00 0.0 l/m2 in 1 Std. Regen
Di, 12.11. 21:30 0.0 l/m2 in 1 Std. -
Di, 12.11. 21:00 0.1 l/m2 in 1 Std. Regen
Ortszeit Stärke Spitze Richtung
km/h Bft. km/h Grad Sektor
Di, 12.11. 19:00 19 3 41 170° S
Di, 12.11. 13:00 24 4 43 210° SW
Di, 12.11. 7:00 22 4 36 190° S
Di, 12.11. 1:00 17 3 39 170° S
Mo, 11.11. 19:00 20 4 39 160° S
Mo, 11.11. 13:00 14 3 36 190° S
Mo, 11.11. 7:00 11 2 25 180° S
Mo, 11.11. 1:00 17 3 26 200° S
Ortszeit Stärke Spitze Richtung
km/h Bft. km/h Grad Sektor
Mi, 13.11. 0:00 9 2 20 190° S
Di, 12.11. 23:50 9 2 - 190° S
Di, 12.11. 23:40 9 2 - 180° S
Di, 12.11. 23:30 11 2 22 170° S
Di, 12.11. 23:20 11 2 - 170° S
Di, 12.11. 23:10 11 2 - 170° S
Di, 12.11. 23:00 9 2 19 160° S
Di, 12.11. 22:30 9 2 19 170° S
Di, 12.11. 22:00 9 2 20 170° S
Di, 12.11. 21:30 11 2 22 180° S
Di, 12.11. 21:00 13 3 26 180° S
Ortszeit Untergrenze Bedeckung Gattung
total tief tief mittel hoch
Di, 12.11. 19:00 600 m 8/8 8/8 - - -
Di, 12.11. 13:00 600 m 8/8 8/8 - - -
Di, 12.11. 7:00 510 m 8/8 8/8 - - -
Di, 12.11. 1:00 510 m 7/8 7/8 - - -
Mo, 11.11. 19:00 240 m 8/8 8/8 - - -
Mo, 11.11. 13:00 7200 m 3/8 0/8 - - -
Mo, 11.11. 7:00 4800 m 8/8 8/8 - - -
Mo, 11.11. 1:00 - 0/8 0/8 - - -
Ortszeit Bedeckungsgrad in Achtel und Wolkenuntergrenze
Mi, 13.11. 0:00 keine Wolken
Di, 12.11. 23:50 keine Wolken
Di, 12.11. 23:40 keine Wolken
Di, 12.11. 23:30 keine Wolken
Di, 12.11. 23:20 keine Wolken
Di, 12.11. 23:10 2(870m)
Di, 12.11. 23:00 7(900m)
Di, 12.11. 22:30 4(900m)
Di, 12.11. 22:00 4(870m)
Di, 12.11. 21:30 1(930m)
Di, 12.11. 21:00 3(930m) 5(1170m)
Ortszeit Luftdruck NN (hPa) Tendenz (hPa in 3 Std.)
Di, 12.11. 19:00 1000 - 0,2
Di, 12.11. 13:00 1000 + 0,3
Di, 12.11. 7:00 999 - 0,1
Di, 12.11. 1:00 1000 - 1,4
Mo, 11.11. 19:00 1003 - 1,1
Mo, 11.11. 13:00 1006 - 2,1
Mo, 11.11. 7:00 1009 - 2,0
Mo, 11.11. 1:00 1011 - 0,8
Ortszeit Luftdruck NN (hPa) Tendenz (hPa in 3 Std.)
Mi, 13.11. 0:00 1000 + 0,3
Di, 12.11. 23:50 1000 keine Meldung
Di, 12.11. 23:40 1000 keine Meldung
Di, 12.11. 23:30 1001 + 0,7
Di, 12.11. 23:20 1001 keine Meldung
Di, 12.11. 23:10 1000 keine Meldung
Di, 12.11. 23:00 1001 + 0,5
Di, 12.11. 22:30 1000 + 0,2
Di, 12.11. 22:00 1000 + 0,2
Di, 12.11. 21:30 1000 - 0,2
Di, 12.11. 21:00 1000 - 0,4
Ortszeit Schneehöhe (cm)
Di, 12.11. 19:00 0
Di, 12.11. 13:00 0
Di, 12.11. 7:00 0
Di, 12.11. 1:00 0
Mo, 11.11. 19:00 0
Mo, 11.11. 13:00 0
Mo, 11.11. 7:00 0
Mo, 11.11. 1:00 0
Ortszeit Schneehöhe (cm)
Mi, 13.11. 0:00 0
Di, 12.11. 23:50 0
Di, 12.11. 23:40 0
Di, 12.11. 23:30 0
Di, 12.11. 23:20 0
Di, 12.11. 23:10 0
Di, 12.11. 23:00 0
Di, 12.11. 22:30 0
Di, 12.11. 22:00 0
Di, 12.11. 21:30 0
Di, 12.11. 21:00 0
Link zu dieser Seite / Seite empfehlen

Das Wetter in ...